sensor_id;sensor_type;location;lat;lon;timestamp;P1;durP1;ratioP1;P2;durP2;ratioP2
56680;SDS011;42558;52.388;13.390;2024-02-21T00:01:48;25.27;;;8.74;;
56680;SDS011;42558;52.388;13.390;2024-02-21T00:04:18;27.55;;;10.07;;
56680;SDS011;42558;52.388;13.390;2024-02-21T00:06:48;24.13;;;8.93;;
56680;SDS011;42558;52.388;13.390;2024-02-21T00:09:18;26.03;;;8.36;;
56680;SDS011;42558;52.388;13.390;2024-02-21T00:11:49;25.65;;;8.93;;
56680;SDS011;42558;52.388;13.390;2024-02-21T00:14:19;26.60;;;8.93;;
56680;SDS011;42558;52.388;13.390;2024-02-21T00:16:49;24.51;;;8.74;;
56680;SDS011;42558;52.388;13.390;2024-02-21T00:19:19;26.98;;;7.98;;
56680;SDS011;42558;52.388;13.390;2024-02-21T00:21:49;22.99;;;8.36;;
56680;SDS011;42558;52.388;13.390;2024-02-21T00:24:19;27.36;;;8.74;;
56680;SDS011;42558;52.388;13.390;2024-02-21T00:26:49;21.66;;;8.55;;
56680;SDS011;42558;52.388;13.390;2024-02-21T00:29:19;21.47;;;8.17;;
56680;SDS011;42558;52.388;13.390;2024-02-21T00:31:49;21.09;;;8.74;;
56680;SDS011;42558;52.388;13.390;2024-02-21T00:34:20;27.74;;;8.36;;
56680;SDS011;42558;52.388;13.390;2024-02-21T00:36:50;25.46;;;7.79;;
56680;SDS011;42558;52.388;13.390;2024-02-21T00:39:20;24.89;;;6.84;;
56680;SDS011;42558;52.388;13.390;2024-02-21T00:41:48;24.32;;;8.93;;
56680;SDS011;42558;52.388;13.390;2024-02-21T00:44:19;30.59;;;9.12;;
56680;SDS011;42558;52.388;13.390;2024-02-21T00:46:47;25.84;;;9.31;;
56680;SDS011;42558;52.388;13.390;2024-02-21T00:49:15;29.64;;;7.98;;
56680;SDS011;42558;52.388;13.390;2024-02-21T00:51:42;22.80;;;7.03;;
56680;SDS011;42558;52.388;13.390;2024-02-21T00:54:11;22.61;;;7.60;;
56680;SDS011;42558;52.388;13.390;2024-02-21T00:56:40;26.22;;;8.74;;
56680;SDS011;42558;52.388;13.390;2024-02-21T00:59:09;26.41;;;8.55;;
56680;SDS011;42558;52.388;13.390;2024-02-21T01:01:39;21.66;;;7.98;;
56680;SDS011;42558;52.388;13.390;2024-02-21T01:04:12;22.99;;;7.60;;
56680;SDS011;42558;52.388;13.390;2024-02-21T01:06:42;27.74;;;7.22;;
56680;SDS011;42558;52.388;13.390;2024-02-21T01:09:13;27.36;;;8.17;;
56680;SDS011;42558;52.388;13.390;2024-02-21T01:11:43;27.36;;;8.74;;
56680;SDS011;42558;52.388;13.390;2024-02-21T01:14:13;20.90;;;7.98;;
56680;SDS011;42558;52.388;13.390;2024-02-21T01:16:43;21.66;;;7.79;;
56680;SDS011;42558;52.388;13.390;2024-02-21T01:19:13;17.67;;;7.41;;
56680;SDS011;42558;52.388;13.390;2024-02-21T01:21:43;24.51;;;8.36;;
56680;SDS011;42558;52.388;13.390;2024-02-21T01:24:13;20.71;;;7.98;;
56680;SDS011;42558;52.388;13.390;2024-02-21T01:26:44;30.40;;;9.31;;
56680;SDS011;42558;52.388;13.390;2024-02-21T01:29:13;16.34;;;6.84;;
56680;SDS011;42558;52.388;13.390;2024-02-21T01:31:43;26.03;;;8.36;;
56680;SDS011;42558;52.388;13.390;2024-02-21T01:34:14;20.33;;;8.17;;
56680;SDS011;42558;52.388;13.390;2024-02-21T01:36:44;18.62;;;7.79;;
56680;SDS011;42558;52.388;13.390;2024-02-21T01:39:13;24.89;;;8.55;;
56680;SDS011;42558;52.388;13.390;2024-02-21T01:41:43;19.00;;;7.41;;
56680;SDS011;42558;52.388;13.390;2024-02-21T01:44:13;20.52;;;7.79;;
56680;SDS011;42558;52.388;13.390;2024-02-21T01:46:43;27.93;;;8.36;;
56680;SDS011;42558;52.388;13.390;2024-02-21T01:49:13;22.80;;;6.84;;
56680;SDS011;42558;52.388;13.390;2024-02-21T01:51:44;23.37;;;7.03;;
56680;SDS011;42558;52.388;13.390;2024-02-21T01:54:15;19.95;;;6.84;;
56680;SDS011;42558;52.388;13.390;2024-02-21T01:56:47;25.84;;;7.41;;
56680;SDS011;42558;52.388;13.390;2024-02-21T01:59:18;23.56;;;7.41;;
56680;SDS011;42558;52.388;13.390;2024-02-21T02:01:51;19.95;;;7.60;;
56680;SDS011;42558;52.388;13.390;2024-02-21T02:04:22;25.27;;;7.79;;
56680;SDS011;42558;52.388;13.390;2024-02-21T02:06:54;22.99;;;6.65;;
56680;SDS011;42558;52.388;13.390;2024-02-21T02:09:24;28.50;;;7.98;;
56680;SDS011;42558;52.388;13.390;2024-02-21T02:11:55;21.66;;;7.60;;
56680;SDS011;42558;52.388;13.390;2024-02-21T02:14:25;25.46;;;7.22;;
56680;SDS011;42558;52.388;13.390;2024-02-21T02:16:55;19.00;;;6.65;;
56680;SDS011;42558;52.388;13.390;2024-02-21T02:19:25;30.78;;;9.31;;
56680;SDS011;42558;52.388;13.390;2024-02-21T02:22:00;25.08;;;7.98;;
56680;SDS011;42558;52.388;13.390;2024-02-21T02:24:39;24.70;;;8.36;;
56680;SDS011;42558;52.388;13.390;2024-02-21T02:27:09;23.37;;;7.98;;
56680;SDS011;42558;52.388;13.390;2024-02-21T02:29:39;21.47;;;7.22;;
56680;SDS011;42558;52.388;13.390;2024-02-21T02:32:08;26.41;;;7.22;;
56680;SDS011;42558;52.388;13.390;2024-02-21T02:34:38;18.62;;;7.98;;
56680;SDS011;42558;52.388;13.390;2024-02-21T02:37:08;18.62;;;8.17;;
56680;SDS011;42558;52.388;13.390;2024-02-21T02:39:38;21.09;;;7.60;;
56680;SDS011;42558;52.388;13.390;2024-02-21T02:42:08;24.51;;;7.60;;
56680;SDS011;42558;52.388;13.390;2024-02-21T02:44:38;26.22;;;7.60;;
56680;SDS011;42558;52.388;13.390;2024-02-21T02:47:08;27.93;;;8.17;;
56680;SDS011;42558;52.388;13.390;2024-02-21T02:49:39;24.51;;;7.60;;
56680;SDS011;42558;52.388;13.390;2024-02-21T02:52:09;18.81;;;7.79;;
56680;SDS011;42558;52.388;13.390;2024-02-21T02:54:38;19.95;;;7.03;;
56680;SDS011;42558;52.388;13.390;2024-02-21T02:57:08;15.39;;;6.84;;
56680;SDS011;42558;52.388;13.390;2024-02-21T02:59:36;23.94;;;6.84;;
56680;SDS011;42558;52.388;13.390;2024-02-21T03:02:06;25.46;;;7.79;;
56680;SDS011;42558;52.388;13.390;2024-02-21T03:04:34;23.75;;;8.17;;
56680;SDS011;42558;52.388;13.390;2024-02-21T03:07:02;20.71;;;7.79;;
56680;SDS011;42558;52.388;13.390;2024-02-21T03:09:32;20.52;;;7.60;;
56680;SDS011;42558;52.388;13.390;2024-02-21T03:12:01;23.18;;;8.93;;
56680;SDS011;42558;52.388;13.390;2024-02-21T03:14:33;19.57;;;7.22;;
56680;SDS011;42558;52.388;13.390;2024-02-21T03:17:03;22.23;;;8.74;;
56680;SDS011;42558;52.388;13.390;2024-02-21T03:19:34;27.93;;;8.36;;
56680;SDS011;42558;52.388;13.390;2024-02-21T03:22:04;22.99;;;7.41;;
56680;SDS011;42558;52.388;13.390;2024-02-21T03:24:35;25.27;;;7.98;;
56680;SDS011;42558;52.388;13.390;2024-02-21T03:27:05;29.07;;;8.55;;
56680;SDS011;42558;52.388;13.390;2024-02-21T03:29:35;27.93;;;7.60;;
56680;SDS011;42558;52.388;13.390;2024-02-21T03:32:04;31.35;;;8.36;;
56680;SDS011;42558;52.388;13.390;2024-02-21T03:34:35;23.75;;;8.17;;
56680;SDS011;42558;52.388;13.390;2024-02-21T03:37:05;21.28;;;7.79;;
56680;SDS011;42558;52.388;13.390;2024-02-21T03:39:35;26.22;;;7.60;;
56680;SDS011;42558;52.388;13.390;2024-02-21T03:42:05;19.19;;;7.03;;
56680;SDS011;42558;52.388;13.390;2024-02-21T03:44:36;26.41;;;8.17;;
56680;SDS011;42558;52.388;13.390;2024-02-21T03:47:06;19.95;;;7.03;;
56680;SDS011;42558;52.388;13.390;2024-02-21T03:49:36;21.09;;;8.55;;
56680;SDS011;42558;52.388;13.390;2024-02-21T03:52:06;18.81;;;7.79;;
56680;SDS011;42558;52.388;13.390;2024-02-21T03:54:37;20.52;;;7.41;;
56680;SDS011;42558;52.388;13.390;2024-02-21T03:57:07;24.13;;;9.31;;
56680;SDS011;42558;52.388;13.390;2024-02-21T03:59:37;25.46;;;7.98;;
56680;SDS011;42558;52.388;13.390;2024-02-21T04:02:13;17.29;;;7.41;;
56680;SDS011;42558;52.388;13.390;2024-02-21T04:04:44;25.27;;;9.31;;
56680;SDS011;42558;52.388;13.390;2024-02-21T04:07:18;26.98;;;7.98;;
56680;SDS011;42558;52.388;13.390;2024-02-21T04:09:48;26.22;;;8.55;;
56680;SDS011;42558;52.388;13.390;2024-02-21T04:12:18;25.84;;;8.74;;
56680;SDS011;42558;52.388;13.390;2024-02-21T04:14:48;25.27;;;9.12;;
56680;SDS011;42558;52.388;13.390;2024-02-21T04:17:18;23.18;;;9.12;;
56680;SDS011;42558;52.388;13.390;2024-02-21T04:19:48;21.85;;;8.17;;
56680;SDS011;42558;52.388;13.390;2024-02-21T04:22:18;23.56;;;8.55;;
56680;SDS011;42558;52.388;13.390;2024-02-21T04:24:48;21.09;;;8.17;;
56680;SDS011;42558;52.388;13.390;2024-02-21T04:27:17;22.42;;;7.60;;
56680;SDS011;42558;52.388;13.390;2024-02-21T04:29:47;21.09;;;8.17;;
56680;SDS011;42558;52.388;13.390;2024-02-21T04:32:17;23.94;;;7.79;;
56680;SDS011;42558;52.388;13.390;2024-02-21T04:34:47;21.09;;;8.17;;
56680;SDS011;42558;52.388;13.390;2024-02-21T04:37:17;23.37;;;8.36;;
56680;SDS011;42558;52.388;13.390;2024-02-21T04:39:48;19.19;;;9.31;;
56680;SDS011;42558;52.388;13.390;2024-02-21T04:42:18;30.02;;;10.07;;
56680;SDS011;42558;52.388;13.390;2024-02-21T04:44:48;19.19;;;8.74;;
56680;SDS011;42558;52.388;13.390;2024-02-21T04:47:18;22.04;;;8.55;;
56680;SDS011;42558;52.388;13.390;2024-02-21T04:49:49;26.98;;;8.93;;
56680;SDS011;42558;52.388;13.390;2024-02-21T04:52:19;24.32;;;8.36;;
56680;SDS011;42558;52.388;13.390;2024-02-21T04:54:49;22.80;;;8.36;;
56680;SDS011;42558;52.388;13.390;2024-02-21T04:57:19;20.33;;;7.22;;
56680;SDS011;42558;52.388;13.390;2024-02-21T04:59:49;26.98;;;8.93;;
56680;SDS011;42558;52.388;13.390;2024-02-21T05:02:19;25.65;;;9.12;;
56680;SDS011;42558;52.388;13.390;2024-02-21T05:04:52;25.27;;;7.98;;
56680;SDS011;42558;52.388;13.390;2024-02-21T05:07:22;20.14;;;8.55;;
56680;SDS011;42558;52.388;13.390;2024-02-21T05:09:52;25.65;;;8.36;;
56680;SDS011;42558;52.388;13.390;2024-02-21T05:12:22;23.18;;;8.36;;
56680;SDS011;42558;52.388;13.390;2024-02-21T05:14:52;24.89;;;7.60;;
56680;SDS011;42558;52.388;13.390;2024-02-21T05:17:22;22.23;;;8.36;;
56680;SDS011;42558;52.388;13.390;2024-02-21T05:19:52;27.74;;;9.31;;
56680;SDS011;42558;52.388;13.390;2024-02-21T05:22:20;21.66;;;8.55;;
56680;SDS011;42558;52.388;13.390;2024-02-21T05:24:49;22.42;;;9.88;;
56680;SDS011;42558;52.388;13.390;2024-02-21T05:27:19;26.98;;;8.74;;
56680;SDS011;42558;52.388;13.390;2024-02-21T05:29:47;23.75;;;8.93;;
56680;SDS011;42558;52.388;13.390;2024-02-21T05:32:17;27.36;;;8.74;;
56680;SDS011;42558;52.388;13.390;2024-02-21T05:34:51;21.47;;;8.55;;
56680;SDS011;42558;52.388;13.390;2024-02-21T05:37:21;22.23;;;7.98;;
56680;SDS011;42558;52.388;13.390;2024-02-21T05:39:49;30.59;;;8.74;;
56680;SDS011;42558;52.388;13.390;2024-02-21T05:42:17;24.70;;;9.50;;
56680;SDS011;42558;52.388;13.390;2024-02-21T05:44:46;22.04;;;8.36;;
56680;SDS011;42558;52.388;13.390;2024-02-21T05:47:14;24.89;;;10.07;;
56680;SDS011;42558;52.388;13.390;2024-02-21T05:49:43;29.45;;;9.12;;
56680;SDS011;42558;52.388;13.390;2024-02-21T05:52:11;18.43;;;7.98;;
56680;SDS011;42558;52.388;13.390;2024-02-21T05:54:39;23.94;;;8.74;;
56680;SDS011;42558;52.388;13.390;2024-02-21T05:57:08;23.56;;;9.88;;
56680;SDS011;42558;52.388;13.390;2024-02-21T05:59:39;24.89;;;9.88;;
56680;SDS011;42558;52.388;13.390;2024-02-21T06:02:11;27.17;;;9.69;;
56680;SDS011;42558;52.388;13.390;2024-02-21T06:04:41;21.47;;;8.55;;
56680;SDS011;42558;52.388;13.390;2024-02-21T06:07:12;25.27;;;9.50;;
56680;SDS011;42558;52.388;13.390;2024-02-21T06:09:43;21.47;;;9.12;;
56680;SDS011;42558;52.388;13.390;2024-02-21T06:12:14;22.04;;;8.55;;
56680;SDS011;42558;52.388;13.390;2024-02-21T06:14:44;25.65;;;9.31;;
56680;SDS011;42558;52.388;13.390;2024-02-21T06:17:14;26.03;;;8.55;;
56680;SDS011;42558;52.388;13.390;2024-02-21T06:19:44;24.89;;;8.93;;
56680;SDS011;42558;52.388;13.390;2024-02-21T06:22:15;25.08;;;10.26;;
56680;SDS011;42558;52.388;13.390;2024-02-21T06:24:45;26.41;;;8.55;;
56680;SDS011;42558;52.388;13.390;2024-02-21T06:27:15;24.89;;;9.69;;
56680;SDS011;42558;52.388;13.390;2024-02-21T06:29:46;26.22;;;8.74;;
56680;SDS011;42558;52.388;13.390;2024-02-21T06:32:16;28.69;;;9.12;;
56680;SDS011;42558;52.388;13.390;2024-02-21T06:34:45;25.84;;;10.26;;
56680;SDS011;42558;52.388;13.390;2024-02-21T06:37:15;23.75;;;9.50;;
56680;SDS011;42558;52.388;13.390;2024-02-21T06:39:45;26.22;;;9.88;;
56680;SDS011;42558;52.388;13.390;2024-02-21T06:42:15;25.46;;;8.93;;
56680;SDS011;42558;52.388;13.390;2024-02-21T06:44:45;24.13;;;9.69;;
56680;SDS011;42558;52.388;13.390;2024-02-21T06:47:15;24.32;;;11.40;;
56680;SDS011;42558;52.388;13.390;2024-02-21T06:49:49;19.38;;;8.93;;
56680;SDS011;42558;52.388;13.390;2024-02-21T06:52:20;23.56;;;10.45;;
56680;SDS011;42558;52.388;13.390;2024-02-21T06:54:50;28.69;;;9.88;;
56680;SDS011;42558;52.388;13.390;2024-02-21T06:57:20;25.46;;;9.88;;
56680;SDS011;42558;52.388;13.390;2024-02-21T06:59:50;20.52;;;8.74;;
56680;SDS011;42558;52.388;13.390;2024-02-21T07:02:20;27.17;;;9.50;;
56680;SDS011;42558;52.388;13.390;2024-02-21T07:04:50;25.46;;;9.69;;
56680;SDS011;42558;52.388;13.390;2024-02-21T07:07:20;25.84;;;9.31;;
56680;SDS011;42558;52.388;13.390;2024-02-21T07:09:50;22.99;;;8.93;;
56680;SDS011;42558;52.388;13.390;2024-02-21T07:12:21;20.33;;;8.93;;
56680;SDS011;42558;52.388;13.390;2024-02-21T07:14:50;23.37;;;8.93;;
56680;SDS011;42558;52.388;13.390;2024-02-21T07:17:20;22.42;;;8.74;;
56680;SDS011;42558;52.388;13.390;2024-02-21T07:19:50;30.02;;;9.69;;
56680;SDS011;42558;52.388;13.390;2024-02-21T07:22:20;32.87;;;10.83;;
56680;SDS011;42558;52.388;13.390;2024-02-21T07:24:50;24.70;;;9.69;;
56680;SDS011;42558;52.388;13.390;2024-02-21T07:27:20;26.41;;;8.74;;
56680;SDS011;42558;52.388;13.390;2024-02-21T07:29:50;25.27;;;9.88;;
56680;SDS011;42558;52.388;13.390;2024-02-21T07:32:20;22.23;;;8.55;;
56680;SDS011;42558;52.388;13.390;2024-02-21T07:34:50;20.14;;;9.88;;
56680;SDS011;42558;52.388;13.390;2024-02-21T07:37:20;17.48;;;8.36;;
56680;SDS011;42558;52.388;13.390;2024-02-21T07:39:50;31.35;;;10.26;;
56680;SDS011;42558;52.388;13.390;2024-02-21T07:42:20;24.70;;;8.36;;
56680;SDS011;42558;52.388;13.390;2024-02-21T07:44:49;20.52;;;8.74;;
56680;SDS011;42558;52.388;13.390;2024-02-21T07:47:19;22.23;;;7.79;;
56680;SDS011;42558;52.388;13.390;2024-02-21T07:49:49;23.75;;;9.88;;
56680;SDS011;42558;52.388;13.390;2024-02-21T07:52:19;25.08;;;8.93;;
56680;SDS011;42558;52.388;13.390;2024-02-21T07:54:47;32.68;;;10.26;;
56680;SDS011;42558;52.388;13.390;2024-02-21T07:57:17;26.79;;;9.69;;
56680;SDS011;42558;52.388;13.390;2024-02-21T07:59:45;22.42;;;9.69;;
56680;SDS011;42558;52.388;13.390;2024-02-21T08:02:16;21.66;;;10.07;;
56680;SDS011;42558;52.388;13.390;2024-02-21T08:04:46;31.35;;;10.26;;
56680;SDS011;42558;52.388;13.390;2024-02-21T08:07:15;26.79;;;9.50;;
56680;SDS011;42558;52.388;13.390;2024-02-21T08:09:43;26.03;;;9.12;;
56680;SDS011;42558;52.388;13.390;2024-02-21T08:12:12;18.81;;;9.50;;
56680;SDS011;42558;52.388;13.390;2024-02-21T08:14:40;21.85;;;9.50;;
56680;SDS011;42558;52.388;13.390;2024-02-21T08:17:09;27.74;;;10.45;;
56680;SDS011;42558;52.388;13.390;2024-02-21T08:19:37;30.59;;;10.45;;
56680;SDS011;42558;52.388;13.390;2024-02-21T08:22:05;27.74;;;10.64;;
56680;SDS011;42558;52.388;13.390;2024-02-21T08:24:34;27.17;;;10.45;;
56680;SDS011;42558;52.388;13.390;2024-02-21T08:27:02;23.56;;;9.88;;
56680;SDS011;42558;52.388;13.390;2024-02-21T08:29:31;24.89;;;10.83;;
56680;SDS011;42558;52.388;13.390;2024-02-21T08:31:59;24.13;;;11.59;;
56680;SDS011;42558;52.388;13.390;2024-02-21T08:34:27;30.59;;;10.83;;
56680;SDS011;42558;52.388;13.390;2024-02-21T08:36:59;26.79;;;11.21;;
56680;SDS011;42558;52.388;13.390;2024-02-21T08:39:27;21.66;;;10.07;;
56680;SDS011;42558;52.388;13.390;2024-02-21T08:41:59;24.89;;;11.78;;
56680;SDS011;42558;52.388;13.390;2024-02-21T08:44:30;23.94;;;10.07;;
56680;SDS011;42558;52.388;13.390;2024-02-21T08:47:00;27.55;;;10.45;;
56680;SDS011;42558;52.388;13.390;2024-02-21T08:49:33;23.75;;;11.21;;
56680;SDS011;42558;52.388;13.390;2024-02-21T08:52:04;22.80;;;9.12;;
56680;SDS011;42558;52.388;13.390;2024-02-21T08:54:34;23.75;;;11.21;;
56680;SDS011;42558;52.388;13.390;2024-02-21T08:57:04;27.93;;;11.59;;
56680;SDS011;42558;52.388;13.390;2024-02-21T08:59:34;24.32;;;10.64;;
56680;SDS011;42558;52.388;13.390;2024-02-21T09:02:04;26.79;;;11.02;;
56680;SDS011;42558;52.388;13.390;2024-02-21T09:04:34;27.55;;;11.21;;
56680;SDS011;42558;52.388;13.390;2024-02-21T09:07:04;25.27;;;9.69;;
56680;SDS011;42558;52.388;13.390;2024-02-21T09:09:34;29.45;;;11.97;;
56680;SDS011;42558;52.388;13.390;2024-02-21T09:12:07;29.07;;;10.83;;
56680;SDS011;42558;52.388;13.390;2024-02-21T09:14:37;30.40;;;10.26;;
56680;SDS011;42558;52.388;13.390;2024-02-21T09:17:10;26.41;;;12.54;;
56680;SDS011;42558;52.388;13.390;2024-02-21T09:19:40;33.63;;;13.49;;
56680;SDS011;42558;52.388;13.390;2024-02-21T09:22:10;26.22;;;11.21;;
56680;SDS011;42558;52.388;13.390;2024-02-21T09:24:40;30.59;;;13.30;;
56680;SDS011;42558;52.388;13.390;2024-02-21T09:27:10;26.22;;;11.78;;
56680;SDS011;42558;52.388;13.390;2024-02-21T09:29:40;27.93;;;12.16;;
56680;SDS011;42558;52.388;13.390;2024-02-21T09:32:10;33.63;;;12.92;;
56680;SDS011;42558;52.388;13.390;2024-02-21T09:34:40;29.64;;;12.16;;
56680;SDS011;42558;52.388;13.390;2024-02-21T09:37:11;31.73;;;12.73;;
56680;SDS011;42558;52.388;13.390;2024-02-21T09:39:41;23.37;;;10.26;;
56680;SDS011;42558;52.388;13.390;2024-02-21T09:42:11;27.36;;;10.45;;
56680;SDS011;42558;52.388;13.390;2024-02-21T09:44:40;28.69;;;13.49;;
56680;SDS011;42558;52.388;13.390;2024-02-21T09:47:19;31.35;;;12.73;;
56680;SDS011;42558;52.388;13.390;2024-02-21T09:49:54;29.26;;;11.59;;
56680;SDS011;42558;52.388;13.390;2024-02-21T09:52:26;22.42;;;11.59;;
56680;SDS011;42558;52.388;13.390;2024-02-21T09:54:58;25.46;;;11.40;;
56680;SDS011;42558;52.388;13.390;2024-02-21T09:57:29;24.89;;;11.78;;
56680;SDS011;42558;52.388;13.390;2024-02-21T10:00:00;27.55;;;13.68;;
56680;SDS011;42558;52.388;13.390;2024-02-21T10:02:39;22.99;;;11.78;;
56680;SDS011;42558;52.388;13.390;2024-02-21T10:05:09;25.65;;;11.78;;
56680;SDS011;42558;52.388;13.390;2024-02-21T10:07:39;25.46;;;11.59;;
56680;SDS011;42558;52.388;13.390;2024-02-21T10:10:10;27.93;;;12.54;;
56680;SDS011;42558;52.388;13.390;2024-02-21T10:12:52;30.78;;;12.92;;
56680;SDS011;42558;52.388;13.390;2024-02-21T10:15:25;24.13;;;11.21;;
56680;SDS011;42558;52.388;13.390;2024-02-21T10:17:59;26.41;;;11.97;;
56680;SDS011;42558;52.388;13.390;2024-02-21T10:20:30;23.94;;;12.73;;
56680;SDS011;42558;52.388;13.390;2024-02-21T10:25:38;25.27;;;10.83;;
56680;SDS011;42558;52.388;13.390;2024-02-21T10:28:15;24.89;;;12.54;;
56680;SDS011;42558;52.388;13.390;2024-02-21T10:30:52;28.12;;;12.35;;
56680;SDS011;42558;52.388;13.390;2024-02-21T10:33:22;22.99;;;11.02;;
56680;SDS011;42558;52.388;13.390;2024-02-21T10:35:55;26.98;;;11.59;;
56680;SDS011;42558;52.388;13.390;2024-02-21T10:38:38;24.70;;;10.45;;
56680;SDS011;42558;52.388;13.390;2024-02-21T10:41:14;26.79;;;11.97;;
56680;SDS011;42558;52.388;13.390;2024-02-21T10:43:49;25.08;;;10.83;;
56680;SDS011;42558;52.388;13.390;2024-02-21T10:46:24;23.18;;;11.21;;
56680;SDS011;42558;52.388;13.390;2024-02-21T10:49:10;21.85;;;11.21;;
56680;SDS011;42558;52.388;13.390;2024-02-21T10:51:47;18.43;;;9.88;;
56680;SDS011;42558;52.388;13.390;2024-02-21T10:55:08;25.65;;;9.88;;
56680;SDS011;42558;52.388;13.390;2024-02-21T10:57:23;23.75;;;11.02;;
56680;SDS011;42558;52.388;13.390;2024-02-21T10:59:59;21.28;;;10.26;;
56680;SDS011;42558;52.388;13.390;2024-02-21T11:02:28;20.14;;;10.64;;
56680;SDS011;42558;52.388;13.390;2024-02-21T11:05:02;15.96;;;10.07;;
56680;SDS011;42558;52.388;13.390;2024-02-21T11:07:36;18.24;;;10.45;;
56680;SDS011;42558;52.388;13.390;2024-02-21T11:10:20;22.04;;;10.07;;
56680;SDS011;42558;52.388;13.390;2024-02-21T11:13:14;21.09;;;10.45;;
56680;SDS011;42558;52.388;13.390;2024-02-21T11:15:44;18.81;;;9.88;;
56680;SDS011;42558;52.388;13.390;2024-02-21T11:18:23;28.31;;;11.21;;
56680;SDS011;42558;52.388;13.390;2024-02-21T11:20:54;21.09;;;10.26;;
56680;SDS011;42558;52.388;13.390;2024-02-21T11:23:26;20.52;;;9.69;;
56680;SDS011;42558;52.388;13.390;2024-02-21T11:26:09;16.72;;;10.83;;
56680;SDS011;42558;52.388;13.390;2024-02-21T11:28:40;18.24;;;9.69;;
56680;SDS011;42558;52.388;13.390;2024-02-21T11:31:12;21.28;;;9.69;;
56680;SDS011;42558;52.388;13.390;2024-02-21T11:33:47;22.80;;;10.64;;
56680;SDS011;42558;52.388;13.390;2024-02-21T11:36:27;19.19;;;9.50;;
56680;SDS011;42558;52.388;13.390;2024-02-21T11:39:04;19.00;;;9.69;;
56680;SDS011;42558;52.388;13.390;2024-02-21T11:41:35;20.14;;;10.26;;
56680;SDS011;42558;52.388;13.390;2024-02-21T11:44:05;16.72;;;8.17;;
56680;SDS011;42558;52.388;13.390;2024-02-21T11:46:35;21.09;;;9.31;;
56680;SDS011;42558;52.388;13.390;2024-02-21T11:49:06;16.15;;;9.12;;
56680;SDS011;42558;52.388;13.390;2024-02-21T11:51:36;20.33;;;8.17;;
56680;SDS011;42558;52.388;13.390;2024-02-21T11:54:06;17.86;;;8.17;;
56680;SDS011;42558;52.388;13.390;2024-02-21T11:56:35;15.39;;;7.60;;
56680;SDS011;42558;52.388;13.390;2024-02-21T11:59:05;12.16;;;7.60;;
56680;SDS011;42558;52.388;13.390;2024-02-21T12:01:36;11.97;;;7.22;;
56680;SDS011;42558;52.388;13.390;2024-02-21T12:04:06;15.39;;;7.22;;
56680;SDS011;42558;52.388;13.390;2024-02-21T12:06:36;15.77;;;7.98;;
56680;SDS011;42558;52.388;13.390;2024-02-21T12:09:07;15.96;;;8.36;;
56680;SDS011;42558;52.388;13.390;2024-02-21T12:11:40;12.54;;;7.60;;
56680;SDS011;42558;52.388;13.390;2024-02-21T12:14:10;16.34;;;8.17;;
56680;SDS011;42558;52.388;13.390;2024-02-21T12:16:41;19.00;;;7.79;;
56680;SDS011;42558;52.388;13.390;2024-02-21T12:19:08;13.49;;;7.03;;
56680;SDS011;42558;52.388;13.390;2024-02-21T12:21:39;19.57;;;8.17;;
56680;SDS011;42558;52.388;13.390;2024-02-21T12:24:21;15.58;;;8.17;;
56680;SDS011;42558;52.388;13.390;2024-02-21T12:26:54;13.87;;;7.79;;
56680;SDS011;42558;52.388;13.390;2024-02-21T12:29:24;18.05;;;7.98;;
56680;SDS011;42558;52.388;13.390;2024-02-21T12:31:53;17.10;;;7.98;;
56680;SDS011;42558;52.388;13.390;2024-02-21T12:34:24;15.39;;;7.60;;
56680;SDS011;42558;52.388;13.390;2024-02-21T12:37:12;14.82;;;6.65;;
56680;SDS011;42558;52.388;13.390;2024-02-21T12:39:43;14.63;;;7.98;;
56680;SDS011;42558;52.388;13.390;2024-02-21T12:42:13;22.04;;;8.36;;
56680;SDS011;42558;52.388;13.390;2024-02-21T12:44:43;15.58;;;7.79;;
56680;SDS011;42558;52.388;13.390;2024-02-21T12:47:13;20.33;;;8.74;;
56680;SDS011;42558;52.388;13.390;2024-02-21T12:49:43;16.72;;;7.98;;
56680;SDS011;42558;52.388;13.390;2024-02-21T12:52:15;18.05;;;8.36;;
56680;SDS011;42558;52.388;13.390;2024-02-21T12:54:45;17.67;;;7.98;;
56680;SDS011;42558;52.388;13.390;2024-02-21T12:57:15;16.72;;;7.98;;
56680;SDS011;42558;52.388;13.390;2024-02-21T12:59:45;17.67;;;8.17;;
56680;SDS011;42558;52.388;13.390;2024-02-21T13:02:15;16.91;;;7.41;;
56680;SDS011;42558;52.388;13.390;2024-02-21T13:04:45;18.24;;;8.93;;
56680;SDS011;42558;52.388;13.390;2024-02-21T13:07:15;17.10;;;8.17;;
56680;SDS011;42558;52.388;13.390;2024-02-21T13:09:45;17.86;;;8.17;;
56680;SDS011;42558;52.388;13.390;2024-02-21T13:12:13;19.95;;;8.17;;
56680;SDS011;42558;52.388;13.390;2024-02-21T13:14:42;16.34;;;7.41;;
56680;SDS011;42558;52.388;13.390;2024-02-21T13:17:13;20.52;;;7.79;;
56680;SDS011;42558;52.388;13.390;2024-02-21T13:19:42;14.82;;;8.55;;
56680;SDS011;42558;52.388;13.390;2024-02-21T13:22:10;15.77;;;7.60;;
56680;SDS011;42558;52.388;13.390;2024-02-21T13:24:39;14.06;;;7.60;;
56680;SDS011;42558;52.388;13.390;2024-02-21T13:27:07;14.06;;;7.22;;
56680;SDS011;42558;52.388;13.390;2024-02-21T13:29:35;22.42;;;8.55;;
56680;SDS011;42558;52.388;13.390;2024-02-21T13:32:04;17.48;;;7.79;;
56680;SDS011;42558;52.388;13.390;2024-02-21T13:34:35;18.62;;;7.98;;
56680;SDS011;42558;52.388;13.390;2024-02-21T13:37:05;15.58;;;7.98;;
56680;SDS011;42558;52.388;13.390;2024-02-21T13:39:37;15.77;;;7.03;;
56680;SDS011;42558;52.388;13.390;2024-02-21T13:42:07;12.16;;;7.22;;
56680;SDS011;42558;52.388;13.390;2024-02-21T13:44:37;14.63;;;7.22;;
56680;SDS011;42558;52.388;13.390;2024-02-21T13:47:08;16.34;;;6.84;;
56680;SDS011;42558;52.388;13.390;2024-02-21T13:49:38;16.91;;;6.46;;
56680;SDS011;42558;52.388;13.390;2024-02-21T13:52:09;15.01;;;6.46;;
56680;SDS011;42558;52.388;13.390;2024-02-21T13:54:39;10.83;;;6.08;;
56680;SDS011;42558;52.388;13.390;2024-02-21T13:57:09;13.68;;;6.84;;
56680;SDS011;42558;52.388;13.390;2024-02-21T13:59:38;13.30;;;6.27;;
56680;SDS011;42558;52.388;13.390;2024-02-21T14:02:09;13.30;;;5.89;;
56680;SDS011;42558;52.388;13.390;2024-02-21T14:04:39;16.91;;;6.27;;
56680;SDS011;42558;52.388;13.390;2024-02-21T14:07:09;15.20;;;5.89;;
56680;SDS011;42558;52.388;13.390;2024-02-21T14:09:40;17.10;;;6.65;;
56680;SDS011;42558;52.388;13.390;2024-02-21T14:12:09;16.91;;;6.46;;
56680;SDS011;42558;52.388;13.390;2024-02-21T14:14:40;16.72;;;6.27;;
56680;SDS011;42558;52.388;13.390;2024-02-21T14:17:11;15.39;;;6.65;;
56680;SDS011;42558;52.388;13.390;2024-02-21T14:19:41;12.92;;;6.08;;
56680;SDS011;42558;52.388;13.390;2024-02-21T14:22:11;15.96;;;7.41;;
56680;SDS011;42558;52.388;13.390;2024-02-21T14:24:41;13.30;;;6.46;;
56680;SDS011;42558;52.388;13.390;2024-02-21T14:27:11;16.91;;;6.27;;
56680;SDS011;42558;52.388;13.390;2024-02-21T14:29:42;13.11;;;6.65;;
56680;SDS011;42558;52.388;13.390;2024-02-21T14:32:12;15.39;;;6.27;;
56680;SDS011;42558;52.388;13.390;2024-02-21T14:34:43;13.49;;;6.08;;
56680;SDS011;42558;52.388;13.390;2024-02-21T14:37:13;11.97;;;5.51;;
56680;SDS011;42558;52.388;13.390;2024-02-21T14:39:43;13.87;;;6.08;;
56680;SDS011;42558;52.388;13.390;2024-02-21T14:42:13;12.16;;;5.51;;